sensor_id;sensor_type;location;lat;lon;timestamp;P1;durP1;ratioP1;P2;durP2;ratioP2
45940;SDS011;31858;46.008;8.978;2024-01-16T00:05:20;0.30;;;0.30;;
45940;SDS011;31858;46.008;8.978;2024-01-16T00:15:23;0.40;;;0.40;;
45940;SDS011;31858;46.008;8.978;2024-01-16T00:25:24;0.55;;;0.50;;
45940;SDS011;31858;46.008;8.978;2024-01-16T00:35:27;0.25;;;0.25;;
45940;SDS011;31858;46.008;8.978;2024-01-16T00:45:29;0.43;;;0.30;;
45940;SDS011;31858;46.008;8.978;2024-01-16T00:55:32;0.20;;;0.20;;
45940;SDS011;31858;46.008;8.978;2024-01-16T01:05:34;1.38;;;0.50;;
45940;SDS011;31858;46.008;8.978;2024-01-16T01:15:37;0.22;;;0.22;;
45940;SDS011;31858;46.008;8.978;2024-01-16T01:25:38;0.90;;;0.47;;
45940;SDS011;31858;46.008;8.978;2024-01-16T01:35:41;0.25;;;0.25;;
45940;SDS011;31858;46.008;8.978;2024-01-16T01:45:43;0.40;;;0.40;;
45940;SDS011;31858;46.008;8.978;2024-01-16T01:55:46;0.30;;;0.30;;
45940;SDS011;31858;46.008;8.978;2024-01-16T02:05:48;0.55;;;0.40;;
45940;SDS011;31858;46.008;8.978;2024-01-16T02:15:51;0.30;;;0.30;;
45940;SDS011;31858;46.008;8.978;2024-01-16T02:25:54;0.30;;;0.30;;
45940;SDS011;31858;46.008;8.978;2024-01-16T02:35:56;1.25;;;0.28;;
45940;SDS011;31858;46.008;8.978;2024-01-16T02:45:59;0.60;;;0.60;;
45940;SDS011;31858;46.008;8.978;2024-01-16T02:56:01;0.65;;;0.65;;
45940;SDS011;31858;46.008;8.978;2024-01-16T03:06:04;0.40;;;0.40;;
45940;SDS011;31858;46.008;8.978;2024-01-16T03:16:06;0.35;;;0.35;;
45940;SDS011;31858;46.008;8.978;2024-01-16T03:26:12;0.70;;;0.70;;
45940;SDS011;31858;46.008;8.978;2024-01-16T03:36:14;0.82;;;0.80;;
45940;SDS011;31858;46.008;8.978;2024-01-16T03:46:17;1.05;;;1.00;;
45940;SDS011;31858;46.008;8.978;2024-01-16T03:56:19;1.73;;;1.50;;
45940;SDS011;31858;46.008;8.978;2024-01-16T04:06:22;3.95;;;2.20;;
45940;SDS011;31858;46.008;8.978;2024-01-16T04:16:23;7.00;;;3.97;;
45940;SDS011;31858;46.008;8.978;2024-01-16T04:26:26;20.27;;;13.73;;
45940;SDS011;31858;46.008;8.978;2024-01-16T04:36:28;20.15;;;13.23;;
45940;SDS011;31858;46.008;8.978;2024-01-16T04:46:31;24.67;;;15.38;;
45940;SDS011;31858;46.008;8.978;2024-01-16T04:56:32;26.08;;;17.08;;
45940;SDS011;31858;46.008;8.978;2024-01-16T05:06:35;42.72;;;26.50;;
45940;SDS011;31858;46.008;8.978;2024-01-16T05:16:37;20.67;;;14.48;;
45940;SDS011;31858;46.008;8.978;2024-01-16T05:26:40;6.35;;;4.40;;
45940;SDS011;31858;46.008;8.978;2024-01-16T05:36:41;15.32;;;9.18;;
45940;SDS011;31858;46.008;8.978;2024-01-16T05:46:45;16.90;;;11.38;;
45940;SDS011;31858;46.008;8.978;2024-01-16T05:56:47;29.63;;;17.88;;
45940;SDS011;31858;46.008;8.978;2024-01-16T06:06:51;31.35;;;19.73;;
45940;SDS011;31858;46.008;8.978;2024-01-16T06:16:53;14.45;;;7.82;;
45940;SDS011;31858;46.008;8.978;2024-01-16T06:26:57;46.05;;;28.65;;
45940;SDS011;31858;46.008;8.978;2024-01-16T06:36:58;16.05;;;9.82;;
45940;SDS011;31858;46.008;8.978;2024-01-16T06:47:01;5.40;;;3.92;;
45940;SDS011;31858;46.008;8.978;2024-01-16T06:57:03;7.57;;;4.53;;
45940;SDS011;31858;46.008;8.978;2024-01-16T07:07:06;15.82;;;10.18;;
45940;SDS011;31858;46.008;8.978;2024-01-16T07:17:08;6.80;;;5.13;;
45940;SDS011;31858;46.008;8.978;2024-01-16T07:27:11;6.82;;;5.00;;
45940;SDS011;31858;46.008;8.978;2024-01-16T07:37:13;12.00;;;4.07;;
45940;SDS011;31858;46.008;8.978;2024-01-16T07:47:17;12.05;;;5.68;;
45940;SDS011;31858;46.008;8.978;2024-01-16T07:57:19;8.02;;;5.45;;
45940;SDS011;31858;46.008;8.978;2024-01-16T08:07:22;8.60;;;5.65;;
45940;SDS011;31858;46.008;8.978;2024-01-16T08:17:23;11.50;;;6.75;;
45940;SDS011;31858;46.008;8.978;2024-01-16T08:27:26;23.35;;;14.43;;
45940;SDS011;31858;46.008;8.978;2024-01-16T08:37:29;10.45;;;5.93;;
45940;SDS011;31858;46.008;8.978;2024-01-16T08:47:32;17.80;;;10.40;;
45940;SDS011;31858;46.008;8.978;2024-01-16T08:57:33;34.22;;;10.57;;
45940;SDS011;31858;46.008;8.978;2024-01-16T09:07:36;17.63;;;9.60;;
45940;SDS011;31858;46.008;8.978;2024-01-16T09:17:38;13.65;;;8.68;;
45940;SDS011;31858;46.008;8.978;2024-01-16T09:27:41;9.35;;;6.28;;
45940;SDS011;31858;46.008;8.978;2024-01-16T09:37:43;13.65;;;7.88;;
45940;SDS011;31858;46.008;8.978;2024-01-16T09:47:46;12.45;;;7.90;;
45940;SDS011;31858;46.008;8.978;2024-01-16T09:57:50;19.23;;;12.88;;
45940;SDS011;31858;46.008;8.978;2024-01-16T10:07:54;20.10;;;12.13;;
45940;SDS011;31858;46.008;8.978;2024-01-16T10:17:56;23.13;;;15.80;;
45940;SDS011;31858;46.008;8.978;2024-01-16T10:28:04;22.27;;;15.70;;
45940;SDS011;31858;46.008;8.978;2024-01-16T10:38:08;22.55;;;15.23;;
45940;SDS011;31858;46.008;8.978;2024-01-16T10:48:11;20.23;;;14.27;;
45940;SDS011;31858;46.008;8.978;2024-01-16T10:58:13;26.15;;;16.17;;
45940;SDS011;31858;46.008;8.978;2024-01-16T11:08:16;21.73;;;13.38;;
45940;SDS011;31858;46.008;8.978;2024-01-16T11:18:18;34.15;;;22.27;;
45940;SDS011;31858;46.008;8.978;2024-01-16T11:28:26;28.90;;;21.08;;
45940;SDS011;31858;46.008;8.978;2024-01-16T11:38:29;32.03;;;23.10;;
45940;SDS011;31858;46.008;8.978;2024-01-16T11:48:35;36.58;;;25.15;;
45940;SDS011;31858;46.008;8.978;2024-01-16T11:58:42;40.33;;;25.90;;
45940;SDS011;31858;46.008;8.978;2024-01-16T12:08:50;30.13;;;21.55;;
45940;SDS011;31858;46.008;8.978;2024-01-16T12:19:03;32.15;;;20.95;;
45940;SDS011;31858;46.008;8.978;2024-01-16T12:29:06;31.23;;;21.48;;
45940;SDS011;31858;46.008;8.978;2024-01-16T12:39:08;34.72;;;23.15;;
45940;SDS011;31858;46.008;8.978;2024-01-16T12:49:13;33.53;;;22.67;;
45940;SDS011;31858;46.008;8.978;2024-01-16T12:59:15;31.55;;;21.02;;
45940;SDS011;31858;46.008;8.978;2024-01-16T13:09:19;33.30;;;22.52;;
45940;SDS011;31858;46.008;8.978;2024-01-16T13:19:24;32.60;;;21.30;;
45940;SDS011;31858;46.008;8.978;2024-01-16T13:29:27;29.25;;;19.00;;
45940;SDS011;31858;46.008;8.978;2024-01-16T13:39:29;24.35;;;16.63;;
45940;SDS011;31858;46.008;8.978;2024-01-16T13:49:33;23.95;;;18.27;;
45940;SDS011;31858;46.008;8.978;2024-01-16T13:59:35;24.40;;;16.70;;
45940;SDS011;31858;46.008;8.978;2024-01-16T14:09:38;23.33;;;16.05;;
45940;SDS011;31858;46.008;8.978;2024-01-16T14:19:41;22.98;;;16.40;;
45940;SDS011;31858;46.008;8.978;2024-01-16T14:29:44;22.60;;;15.98;;
45940;SDS011;31858;46.008;8.978;2024-01-16T14:39:45;22.63;;;15.95;;
45940;SDS011;31858;46.008;8.978;2024-01-16T14:49:48;22.52;;;15.65;;
45940;SDS011;31858;46.008;8.978;2024-01-16T14:59:50;17.02;;;12.77;;
45940;SDS011;31858;46.008;8.978;2024-01-16T15:09:53;24.40;;;15.98;;
45940;SDS011;31858;46.008;8.978;2024-01-16T15:19:55;22.27;;;15.98;;
45940;SDS011;31858;46.008;8.978;2024-01-16T15:29:58;27.77;;;16.13;;
45940;SDS011;31858;46.008;8.978;2024-01-16T15:40:00;22.98;;;15.75;;
45940;SDS011;31858;46.008;8.978;2024-01-16T15:50:04;20.27;;;14.88;;
45940;SDS011;31858;46.008;8.978;2024-01-16T16:00:07;20.90;;;15.18;;
45940;SDS011;31858;46.008;8.978;2024-01-16T16:10:11;22.17;;;15.93;;
45940;SDS011;31858;46.008;8.978;2024-01-16T16:20:13;34.25;;;17.90;;
45940;SDS011;31858;46.008;8.978;2024-01-16T16:30:16;27.75;;;16.40;;
45940;SDS011;31858;46.008;8.978;2024-01-16T16:40:18;23.13;;;15.93;;
45940;SDS011;31858;46.008;8.978;2024-01-16T16:50:20;24.23;;;16.27;;
45940;SDS011;31858;46.008;8.978;2024-01-16T17:00:23;22.70;;;15.85;;
45940;SDS011;31858;46.008;8.978;2024-01-16T17:10:26;26.85;;;18.05;;
45940;SDS011;31858;46.008;8.978;2024-01-16T17:20:27;37.65;;;18.85;;
45940;SDS011;31858;46.008;8.978;2024-01-16T17:30:30;27.20;;;18.75;;
45940;SDS011;31858;46.008;8.978;2024-01-16T17:40:32;35.75;;;23.50;;
45940;SDS011;31858;46.008;8.978;2024-01-16T17:50:35;40.22;;;23.48;;
45940;SDS011;31858;46.008;8.978;2024-01-16T18:00:37;44.92;;;27.77;;
45940;SDS011;31858;46.008;8.978;2024-01-16T18:10:41;42.63;;;27.80;;
45940;SDS011;31858;46.008;8.978;2024-01-16T18:20:43;39.33;;;26.98;;
45940;SDS011;31858;46.008;8.978;2024-01-16T18:30:46;39.08;;;26.55;;
45940;SDS011;31858;46.008;8.978;2024-01-16T18:40:49;40.22;;;26.90;;
45940;SDS011;31858;46.008;8.978;2024-01-16T18:50:53;47.40;;;28.63;;
45940;SDS011;31858;46.008;8.978;2024-01-16T19:00:55;43.75;;;29.45;;
45940;SDS011;31858;46.008;8.978;2024-01-16T19:10:59;34.50;;;25.10;;
45940;SDS011;31858;46.008;8.978;2024-01-16T19:21:02;33.65;;;22.30;;
45940;SDS011;31858;46.008;8.978;2024-01-16T19:31:05;31.80;;;21.30;;
45940;SDS011;31858;46.008;8.978;2024-01-16T19:41:07;29.55;;;20.00;;
45940;SDS011;31858;46.008;8.978;2024-01-16T19:51:10;33.17;;;20.08;;
45940;SDS011;31858;46.008;8.978;2024-01-16T20:01:12;33.13;;;19.63;;
45940;SDS011;31858;46.008;8.978;2024-01-16T20:11:21;34.33;;;21.42;;
45940;SDS011;31858;46.008;8.978;2024-01-16T20:21:27;30.63;;;19.55;;
45940;SDS011;31858;46.008;8.978;2024-01-16T20:31:30;28.90;;;19.08;;
45940;SDS011;31858;46.008;8.978;2024-01-16T20:41:32;30.40;;;19.17;;
45940;SDS011;31858;46.008;8.978;2024-01-16T20:51:34;36.20;;;20.70;;
45940;SDS011;31858;46.008;8.978;2024-01-16T21:01:36;36.17;;;21.58;;
45940;SDS011;31858;46.008;8.978;2024-01-16T21:11:41;31.48;;;19.38;;
45940;SDS011;31858;46.008;8.978;2024-01-16T21:21:43;36.60;;;24.15;;
45940;SDS011;31858;46.008;8.978;2024-01-16T21:31:47;34.03;;;22.77;;
45940;SDS011;31858;46.008;8.978;2024-01-16T21:41:49;35.63;;;22.38;;
45940;SDS011;31858;46.008;8.978;2024-01-16T21:51:52;34.60;;;22.02;;
45940;SDS011;31858;46.008;8.978;2024-01-16T22:01:53;32.28;;;20.45;;
45940;SDS011;31858;46.008;8.978;2024-01-16T22:11:56;34.28;;;19.88;;
45940;SDS011;31858;46.008;8.978;2024-01-16T22:21:58;40.53;;;24.65;;
45940;SDS011;31858;46.008;8.978;2024-01-16T22:32:01;38.47;;;25.00;;
45940;SDS011;31858;46.008;8.978;2024-01-16T22:42:04;35.30;;;20.88;;
45940;SDS011;31858;46.008;8.978;2024-01-16T22:52:08;30.55;;;19.40;;
45940;SDS011;31858;46.008;8.978;2024-01-16T23:02:09;34.53;;;21.30;;
45940;SDS011;31858;46.008;8.978;2024-01-16T23:12:12;29.75;;;20.20;;
45940;SDS011;31858;46.008;8.978;2024-01-16T23:22:14;31.35;;;19.27;;
45940;SDS011;31858;46.008;8.978;2024-01-16T23:32:17;34.58;;;20.08;;
45940;SDS011;31858;46.008;8.978;2024-01-16T23:42:19;28.10;;;17.45;;
45940;SDS011;31858;46.008;8.978;2024-01-16T23:52:24;29.55;;;18.90;;
